Time;durP1;ratioP1;P1;durP2;ratioP2;P2;SDS_P1;SDS_P2;PMS_P1;PMS_P2;Temp;Humidity;BMP_temperature;BMP_pressure;BME280_temperature;BME280_humidity;BME280_pressure;Samples;Min_cycle;Max_cycle;Signal;HPM_P1;HPM_P2
2023/08/25 00:01:00;;;;;;;1.95;1.20;;;;;;;;;;5055307;28;20430;-60
2023/08/25 00:03:26;;;;;;;3.30;1.70;;;;;;;;;;5056985;28;20021;-60
2023/08/25 00:05:55;;;;;;;3.13;1.55;;;;;;;;;;5056992;28;20362;-60
2023/08/25 00:08:21;;;;;;;1.95;1.35;;;;;;;;;;5056884;28;20070;-60
2023/08/25 00:10:48;;;;;;;2.83;1.73;;;;;;;;;;5057727;28;20024;-60
2023/08/25 00:13:14;;;;;;;2.55;1.65;;;;;;;;;;5056791;28;20366;-60
2023/08/25 00:15:41;;;;;;;2.50;1.65;;;;;;;;;;5056665;28;20048;-60
2023/08/25 00:18:07;;;;;;;3.67;1.60;;;;;;;;;;5056667;28;20025;-60
2023/08/25 00:20:33;;;;;;;5.93;1.95;;;;;;;;;;5057155;28;20099;-60
2023/08/25 00:22:59;;;;;;;3.85;1.90;;;;;;;;;;5056944;28;20454;-60
2023/08/25 00:25:25;;;;;;;2.75;1.63;;;;;;;;;;5057155;28;20025;-60
2023/08/25 00:27:51;;;;;;;2.78;1.70;;;;;;;;;;5057059;28;20017;-60
2023/08/25 00:30:17;;;;;;;1.90;1.17;;;;;;;;;;5056444;28;20014;-60
2023/08/25 00:32:43;;;;;;;3.42;1.85;;;;;;;;;;5056438;28;20091;-60
2023/08/25 00:35:09;;;;;;;3.35;1.55;;;;;;;;;;5056187;28;20025;-60
2023/08/25 00:37:35;;;;;;;4.03;1.77;;;;;;;;;;5056862;28;20029;-60
2023/08/25 00:40:00;;;;;;;2.60;1.63;;;;;;;;;;5056472;28;20029;-60
2023/08/25 00:42:26;;;;;;;3.40;1.75;;;;;;;;;;5056294;28;20363;-60
2023/08/25 00:44:52;;;;;;;2.22;1.63;;;;;;;;;;5056992;28;20021;-60
2023/08/25 00:47:19;;;;;;;2.28;1.50;;;;;;;;;;5056691;28;20422;-60
2023/08/25 00:49:46;;;;;;;2.22;1.40;;;;;;;;;;5056491;28;20032;-60
2023/08/25 00:52:12;;;;;;;2.45;1.55;;;;;;;;;;5056048;28;20112;-60
2023/08/25 00:54:38;;;;;;;3.78;1.30;;;;;;;;;;5056800;28;20056;-60
2023/08/25 00:57:04;;;;;;;2.40;1.40;;;;;;;;;;5055667;28;20024;-60
2023/08/25 00:59:31;;;;;;;2.45;1.63;;;;;;;;;;5055861;28;20025;-60
2023/08/25 01:01:57;;;;;;;2.88;1.48;;;;;;;;;;5055935;28;20032;-60
2023/08/25 01:04:23;;;;;;;3.42;1.50;;;;;;;;;;5055742;28;20075;-60
2023/08/25 01:06:49;;;;;;;3.30;1.80;;;;;;;;;;5055407;28;20021;-60
2023/08/25 01:09:16;;;;;;;2.92;1.75;;;;;;;;;;5056294;28;20036;-60
2023/08/25 01:11:47;;;;;;;2.60;1.60;;;;;;;;;;5055046;28;20025;-60
2023/08/25 01:14:20;;;;;;;2.35;1.40;;;;;;;;;;5055646;28;20103;-60
2023/08/25 01:16:50;;;;;;;3.03;1.73;;;;;;;;;;5056158;28;20059;-60
2023/08/25 01:19:37;;;;;;;4.65;1.50;;;;;;;;;;5055781;28;20128;-60
2023/08/25 01:22:06;;;;;;;3.10;1.83;;;;;;;;;;5051593;28;20040;-60
2023/08/25 01:24:33;;;;;;;2.45;1.60;;;;;;;;;;5055453;28;20017;-60
2023/08/25 01:27:00;;;;;;;2.63;1.63;;;;;;;;;;5055443;28;20109;-60
2023/08/25 01:29:25;;;;;;;2.38;1.58;;;;;;;;;;5055970;28;20021;-60
2023/08/25 01:31:51;;;;;;;2.30;1.38;;;;;;;;;;5055850;28;20032;-60
2023/08/25 01:34:17;;;;;;;2.85;1.85;;;;;;;;;;5055296;28;20456;-60
2023/08/25 01:36:50;;;;;;;2.75;1.85;;;;;;;;;;5055429;28;20045;-60
2023/08/25 01:39:16;;;;;;;3.80;1.58;;;;;;;;;;5055029;28;20036;-60
2023/08/25 01:41:46;;;;;;;3.08;1.70;;;;;;;;;;5055651;28;20020;-60
2023/08/25 01:44:13;;;;;;;2.50;1.80;;;;;;;;;;5055287;28;20473;-60
2023/08/25 01:46:41;;;;;;;2.03;1.35;;;;;;;;;;5055117;28;20056;-60
2023/08/25 01:49:07;;;;;;;2.63;1.77;;;;;;;;;;5055561;28;20024;-60
2023/08/25 01:51:34;;;;;;;2.42;1.55;;;;;;;;;;5054922;28;20021;-60
2023/08/25 01:54:00;;;;;;;2.92;1.73;;;;;;;;;;5055187;28;20079;-60
2023/08/25 01:56:26;;;;;;;2.88;1.38;;;;;;;;;;5054867;28;20021;-60
2023/08/25 01:58:52;;;;;;;2.53;1.52;;;;;;;;;;5054809;28;20096;-60
2023/08/25 02:01:18;;;;;;;2.17;1.38;;;;;;;;;;5054478;28;20036;-60
2023/08/25 02:03:44;;;;;;;3.38;1.48;;;;;;;;;;5055024;28;20029;-60
2023/08/25 02:06:10;;;;;;;3.15;1.58;;;;;;;;;;5055458;28;20060;-60
2023/08/25 02:08:36;;;;;;;3.60;1.88;;;;;;;;;;5054872;28;20415;-60
2023/08/25 02:11:02;;;;;;;3.70;1.77;;;;;;;;;;5055114;28;20021;-60
2023/08/25 02:13:28;;;;;;;2.80;1.45;;;;;;;;;;5054567;28;20392;-60
2023/08/25 02:15:55;;;;;;;2.28;1.58;;;;;;;;;;5054778;28;20077;-60
2023/08/25 02:18:21;;;;;;;3.05;2.03;;;;;;;;;;5054970;28;20398;-60
2023/08/25 02:20:47;;;;;;;2.90;1.65;;;;;;;;;;5054906;28;20332;-60
2023/08/25 02:23:13;;;;;;;1.90;1.17;;;;;;;;;;5053958;28;20028;-60
2023/08/25 02:25:39;;;;;;;2.63;1.58;;;;;;;;;;5054181;28;20028;-60
2023/08/25 02:28:05;;;;;;;2.80;1.40;;;;;;;;;;5054457;28;20021;-60
2023/08/25 02:30:31;;;;;;;2.42;1.65;;;;;;;;;;5054154;28;20451;-60
2023/08/25 02:32:57;;;;;;;3.80;1.55;;;;;;;;;;5054130;28;20017;-60
2023/08/25 02:35:23;;;;;;;2.28;1.50;;;;;;;;;;5053896;28;20159;-60
2023/08/25 02:38:01;;;;;;;2.40;1.45;;;;;;;;;;5054137;28;20466;-60
2023/08/25 02:40:28;;;;;;;2.65;1.88;;;;;;;;;;5053807;28;20033;-60
2023/08/25 02:42:54;;;;;;;6.28;1.58;;;;;;;;;;5053897;28;20108;-60
2023/08/25 02:45:22;;;;;;;2.95;1.73;;;;;;;;;;5053932;28;20021;-60
2023/08/25 02:47:48;;;;;;;2.22;1.35;;;;;;;;;;5053893;28;20111;-60
2023/08/25 02:50:14;;;;;;;2.72;1.75;;;;;;;;;;5054225;28;20079;-60
2023/08/25 02:52:40;;;;;;;2.10;1.35;;;;;;;;;;5054422;28;20036;-60
2023/08/25 02:55:06;;;;;;;2.47;1.50;;;;;;;;;;5054380;28;20031;-60
2023/08/25 02:57:32;;;;;;;3.25;1.85;;;;;;;;;;5053733;28;20025;-60
2023/08/25 02:59:58;;;;;;;2.85;1.85;;;;;;;;;;5054281;28;20037;-60
2023/08/25 03:02:24;;;;;;;2.20;1.40;;;;;;;;;;5053661;28;20029;-60
2023/08/25 03:04:50;;;;;;;2.70;1.58;;;;;;;;;;5054231;28;20037;-60
2023/08/25 03:07:16;;;;;;;3.50;2.00;;;;;;;;;;5053391;28;20025;-60
2023/08/25 03:09:42;;;;;;;2.38;1.52;;;;;;;;;;5053851;28;20033;-60
2023/08/25 03:12:08;;;;;;;2.08;1.27;;;;;;;;;;5054137;28;20443;-60
2023/08/25 03:14:34;;;;;;;2.90;1.70;;;;;;;;;;5054091;28;20029;-60
2023/08/25 03:17:00;;;;;;;3.70;2.22;;;;;;;;;;5053284;28;20025;-60
2023/08/25 03:19:26;;;;;;;2.63;1.40;;;;;;;;;;5053217;28;20028;-60
2023/08/25 03:21:51;;;;;;;2.70;1.77;;;;;;;;;;5053511;28;20029;-60
2023/08/25 03:24:17;;;;;;;3.33;1.95;;;;;;;;;;5053966;28;20028;-60
2023/08/25 03:26:43;;;;;;;2.92;1.75;;;;;;;;;;5053971;28;20021;-60
2023/08/25 03:29:09;;;;;;;2.42;1.60;;;;;;;;;;5053980;28;20471;-60
2023/08/25 03:31:36;;;;;;;5.45;1.77;;;;;;;;;;5053747;28;20017;-60
2023/08/25 03:34:02;;;;;;;2.22;1.48;;;;;;;;;;5053374;28;20029;-60
2023/08/25 03:36:30;;;;;;;2.95;1.58;;;;;;;;;;5057353;28;20053;-60
2023/08/25 03:38:55;;;;;;;3.65;1.70;;;;;;;;;;5057967;28;20112;-60
2023/08/25 03:41:21;;;;;;;2.22;1.33;;;;;;;;;;5057010;28;20514;-60
2023/08/25 03:43:47;;;;;;;2.50;1.73;;;;;;;;;;5057835;28;20108;-60
2023/08/25 03:46:13;;;;;;;4.13;1.73;;;;;;;;;;5057795;28;20057;-60
2023/08/25 03:48:39;;;;;;;4.13;1.85;;;;;;;;;;5057259;28;20036;-60
2023/08/25 03:51:05;;;;;;;2.92;1.85;;;;;;;;;;5057812;28;20021;-60
2023/08/25 03:53:31;;;;;;;2.53;1.52;;;;;;;;;;5057202;28;20064;-60
2023/08/25 03:55:57;;;;;;;3.95;1.50;;;;;;;;;;5057420;28;20025;-60
2023/08/25 03:58:23;;;;;;;2.45;1.50;;;;;;;;;;5057164;28;20017;-60
2023/08/25 04:00:54;;;;;;;3.45;1.75;;;;;;;;;;5057751;28;20443;-60
2023/08/25 04:03:20;;;;;;;3.30;1.70;;;;;;;;;;5057209;28;20343;-60
2023/08/25 04:05:46;;;;;;;3.35;2.10;;;;;;;;;;5056688;28;20032;-60
2023/08/25 04:08:12;;;;;;;2.50;1.52;;;;;;;;;;5056984;28;20044;-60
2023/08/25 04:10:38;;;;;;;3.55;1.67;;;;;;;;;;5057494;28;20056;-60
2023/08/25 04:13:04;;;;;;;3.25;1.83;;;;;;;;;;5056849;28;20056;-60
2023/08/25 04:15:30;;;;;;;1.73;1.23;;;;;;;;;;5056814;28;20520;-60
2023/08/25 04:17:56;;;;;;;2.42;1.63;;;;;;;;;;5057279;28;20025;-60
2023/08/25 04:20:22;;;;;;;2.17;1.50;;;;;;;;;;5056915;28;20113;-60
2023/08/25 04:22:48;;;;;;;3.03;2.00;;;;;;;;;;5056665;28;20021;-60
2023/08/25 04:25:13;;;;;;;2.55;1.85;;;;;;;;;;5056632;28;20052;-60
2023/08/25 04:27:39;;;;;;;3.72;1.98;;;;;;;;;;5057134;28;20517;-60
2023/08/25 04:30:06;;;;;;;2.65;1.80;;;;;;;;;;5057366;28;20053;-60
2023/08/25 04:32:32;;;;;;;3.25;1.55;;;;;;;;;;5056995;28;20088;-60
2023/08/25 04:34:58;;;;;;;2.47;1.75;;;;;;;;;;5056748;28;20077;-60
2023/08/25 04:37:24;;;;;;;4.18;2.40;;;;;;;;;;5056179;28;20374;-60
2023/08/25 04:39:50;;;;;;;5.80;1.67;;;;;;;;;;5056498;28;20036;-60
2023/08/25 04:42:15;;;;;;;2.58;1.60;;;;;;;;;;5057122;28;20055;-60
2023/08/25 04:44:41;;;;;;;3.53;1.92;;;;;;;;;;5057066;28;20103;-60
2023/08/25 04:47:08;;;;;;;3.38;2.13;;;;;;;;;;5055899;28;20017;-60
2023/08/25 04:49:33;;;;;;;5.38;2.05;;;;;;;;;;5056693;28;20087;-60
2023/08/25 04:52:00;;;;;;;3.17;1.90;;;;;;;;;;5056625;28;20408;-60
2023/08/25 04:54:26;;;;;;;4.43;1.95;;;;;;;;;;5055738;28;20475;-60
2023/08/25 04:56:52;;;;;;;2.65;1.40;;;;;;;;;;5056798;28;20020;-60
2023/08/25 04:59:18;;;;;;;4.30;1.77;;;;;;;;;;5056487;28;20025;-60
2023/08/25 05:01:44;;;;;;;2.88;2.03;;;;;;;;;;5055934;28;20171;-60
2023/08/25 05:04:11;;;;;;;3.90;1.85;;;;;;;;;;5056345;28;20467;-60
2023/08/25 05:06:37;;;;;;;4.68;2.30;;;;;;;;;;5055792;28;20021;-60
2023/08/25 05:09:03;;;;;;;2.70;2.10;;;;;;;;;;5056278;28;20506;-60
2023/08/25 05:11:29;;;;;;;2.80;1.52;;;;;;;;;;5055770;28;20035;-60
2023/08/25 05:13:55;;;;;;;2.95;1.95;;;;;;;;;;5055681;28;20025;-60
2023/08/25 05:16:24;;;;;;;3.38;1.90;;;;;;;;;;5056150;28;20025;-60
2023/08/25 05:18:50;;;;;;;2.78;1.80;;;;;;;;;;5055447;28;20163;-60
2023/08/25 05:21:16;;;;;;;2.70;1.95;;;;;;;;;;5055222;28;20120;-60
2023/08/25 05:23:46;;;;;;;3.17;2.10;;;;;;;;;;5055401;28;20021;-60
2023/08/25 05:26:12;;;;;;;2.42;1.73;;;;;;;;;;5055441;28;20100;-61
2023/08/25 05:28:38;;;;;;;3.17;1.80;;;;;;;;;;5055832;28;20028;-60
2023/08/25 05:31:04;;;;;;;2.80;1.70;;;;;;;;;;5055448;28;20490;-60
2023/08/25 05:33:30;;;;;;;4.55;2.05;;;;;;;;;;5056034;28;20042;-60
2023/08/25 05:35:56;;;;;;;2.30;1.50;;;;;;;;;;5054936;28;20073;-60
2023/08/25 05:38:22;;;;;;;2.88;1.98;;;;;;;;;;5056075;28;20450;-60
2023/08/25 05:40:48;;;;;;;3.33;2.08;;;;;;;;;;5055346;28;20032;-60
2023/08/25 05:43:14;;;;;;;4.63;2.47;;;;;;;;;;5055168;28;20019;-60
2023/08/25 05:45:40;;;;;;;2.42;1.50;;;;;;;;;;5055073;28;20116;-60
2023/08/25 05:48:06;;;;;;;2.95;1.88;;;;;;;;;;5055034;28;20056;-60
2023/08/25 05:50:32;;;;;;;2.30;1.83;;;;;;;;;;5055019;28;20025;-61
2023/08/25 05:52:58;;;;;;;2.90;1.95;;;;;;;;;;5055458;28;20021;-61
2023/08/25 05:55:24;;;;;;;4.55;1.75;;;;;;;;;;5054797;28;20025;-60
2023/08/25 05:57:50;;;;;;;2.33;1.63;;;;;;;;;;5053926;28;20087;-60
2023/08/25 06:00:18;;;;;;;3.20;1.75;;;;;;;;;;5055309;28;20355;-60
2023/08/25 06:02:44;;;;;;;2.60;1.58;;;;;;;;;;5054763;28;20025;-60
2023/08/25 06:05:10;;;;;;;3.83;1.65;;;;;;;;;;5055208;28;20446;-60
2023/08/25 06:07:35;;;;;;;3.78;2.17;;;;;;;;;;5054343;28;20378;-60
2023/08/25 06:10:02;;;;;;;2.75;1.55;;;;;;;;;;5054643;28;20025;-60
2023/08/25 06:12:28;;;;;;;3.22;2.03;;;;;;;;;;5055031;28;20029;-60
2023/08/25 06:14:54;;;;;;;3.30;1.90;;;;;;;;;;5054490;28;20025;-60
2023/08/25 06:17:20;;;;;;;3.72;2.13;;;;;;;;;;5054489;28;20024;-60
2023/08/25 06:19:46;;;;;;;2.75;1.77;;;;;;;;;;5054634;28;20025;-60
2023/08/25 06:22:12;;;;;;;2.95;2.00;;;;;;;;;;5054005;28;20029;-60
2023/08/25 06:24:38;;;;;;;2.90;2.10;;;;;;;;;;5054218;28;20108;-60
2023/08/25 06:27:04;;;;;;;9.80;2.15;;;;;;;;;;5054188;28;20067;-60
2023/08/25 06:29:30;;;;;;;3.70;1.90;;;;;;;;;;5054515;28;20032;-60
2023/08/25 06:31:57;;;;;;;3.15;2.22;;;;;;;;;;5054201;28;20359;-60
2023/08/25 06:34:23;;;;;;;3.63;2.78;;;;;;;;;;5054479;28;20029;-60
2023/08/25 06:36:49;;;;;;;3.95;2.03;;;;;;;;;;5053640;28;20052;-60
2023/08/25 06:39:15;;;;;;;3.95;2.17;;;;;;;;;;5054009;28;20041;-61
2023/08/25 06:41:41;;;;;;;3.70;2.65;;;;;;;;;;5054556;28;20355;-61
2023/08/25 06:44:06;;;;;;;3.15;2.05;;;;;;;;;;5054015;28;20021;-61
2023/08/25 06:46:33;;;;;;;4.05;2.50;;;;;;;;;;5053996;28;20029;-60
2023/08/25 06:48:59;;;;;;;2.33;1.85;;;;;;;;;;5054294;28;20017;-60
2023/08/25 06:51:25;;;;;;;6.22;2.22;;;;;;;;;;5054354;28;20017;-61
2023/08/25 06:53:51;;;;;;;3.17;2.10;;;;;;;;;;5054049;28;20025;-61
2023/08/25 06:56:17;;;;;;;3.33;2.10;;;;;;;;;;5053778;28;20047;-61
2023/08/25 06:58:43;;;;;;;4.70;2.63;;;;;;;;;;5053714;28;20036;-60
2023/08/25 07:01:10;;;;;;;3.90;2.20;;;;;;;;;;5053922;28;20063;-60
2023/08/25 07:03:36;;;;;;;3.10;2.25;;;;;;;;;;5053530;28;20021;-61
2023/08/25 07:06:05;;;;;;;2.92;1.90;;;;;;;;;;5053498;28;20027;-61
2023/08/25 07:08:31;;;;;;;5.70;2.15;;;;;;;;;;5054101;28;20086;-60
2023/08/25 07:10:57;;;;;;;3.58;2.22;;;;;;;;;;5053015;28;20458;-60
2023/08/25 07:13:23;;;;;;;4.32;1.90;;;;;;;;;;5054074;28;20017;-60
2023/08/25 07:15:50;;;;;;;3.38;1.92;;;;;;;;;;5053578;28;20373;-61
2023/08/25 07:18:15;;;;;;;3.28;1.80;;;;;;;;;;5054041;28;20473;-61
2023/08/25 07:20:41;;;;;;;2.90;2.33;;;;;;;;;;5054012;28;20116;-61
2023/08/25 07:23:08;;;;;;;3.38;2.40;;;;;;;;;;5053509;28;20032;-61
2023/08/25 07:25:34;;;;;;;3.00;2.10;;;;;;;;;;5054046;28;20113;-61
2023/08/25 07:27:59;;;;;;;4.28;1.92;;;;;;;;;;5053958;28;20040;-59
2023/08/25 07:30:25;;;;;;;2.75;1.80;;;;;;;;;;5053774;28;20033;-59
2023/08/25 07:32:51;;;;;;;2.97;2.00;;;;;;;;;;5054265;28;20446;-60
2023/08/25 07:35:17;;;;;;;2.80;1.85;;;;;;;;;;5053598;28;20129;-60
2023/08/25 07:37:43;;;;;;;4.47;1.90;;;;;;;;;;5053895;28;20029;-60
2023/08/25 07:40:10;;;;;;;2.97;2.08;;;;;;;;;;5053225;28;20133;-60
2023/08/25 07:42:36;;;;;;;3.75;1.77;;;;;;;;;;5053307;28;20064;-60
2023/08/25 07:45:05;;;;;;;4.15;2.10;;;;;;;;;;5053173;28;20061;-60
2023/08/25 07:47:31;;;;;;;3.35;2.22;;;;;;;;;;5053164;28;20013;-60
2023/08/25 07:49:57;;;;;;;2.47;2.08;;;;;;;;;;5053626;28;20033;-60
2023/08/25 07:52:22;;;;;;;3.20;2.35;;;;;;;;;;5053757;28;20025;-60
2023/08/25 07:54:48;;;;;;;4.10;2.10;;;;;;;;;;5053173;28;20024;-61
2023/08/25 07:57:14;;;;;;;4.22;2.47;;;;;;;;;;5053198;28;20013;-61
2023/08/25 07:59:40;;;;;;;4.28;2.25;;;;;;;;;;5053582;28;20025;-60
2023/08/25 08:02:06;;;;;;;3.10;2.30;;;;;;;;;;5053178;28;20032;-60
2023/08/25 08:04:32;;;;;;;2.90;2.08;;;;;;;;;;5053116;28;20021;-61
2023/08/25 08:07:00;;;;;;;3.03;1.92;;;;;;;;;;5053274;28;20052;-61
2023/08/25 08:09:26;;;;;;;3.10;1.98;;;;;;;;;;5053576;28;20029;-60
2023/08/25 08:11:52;;;;;;;6.60;2.22;;;;;;;;;;5053513;28;20025;-60
2023/08/25 08:14:18;;;;;;;5.20;2.50;;;;;;;;;;5052962;28;20383;-60
2023/08/25 08:16:44;;;;;;;4.45;2.17;;;;;;;;;;5053290;28;20021;-60
2023/08/25 08:19:10;;;;;;;3.65;2.33;;;;;;;;;;5053336;28;20108;-61
2023/08/25 08:21:36;;;;;;;2.90;2.47;;;;;;;;;;5054555;28;20384;-61
2023/08/25 08:24:03;;;;;;;2.78;2.08;;;;;;;;;;5056683;28;20032;-61
2023/08/25 08:26:29;;;;;;;3.10;1.98;;;;;;;;;;5056574;28;20025;-61
2023/08/25 08:28:55;;;;;;;3.78;2.70;;;;;;;;;;5057118;28;20021;-61
2023/08/25 08:31:22;;;;;;;4.28;2.47;;;;;;;;;;5056997;28;20355;-61
2023/08/25 08:33:48;;;;;;;4.32;2.35;;;;;;;;;;5056961;28;20112;-60
2023/08/25 08:36:19;;;;;;;3.35;2.60;;;;;;;;;;5056315;28;20055;-60
2023/08/25 08:38:45;;;;;;;3.92;2.20;;;;;;;;;;5056553;28;20462;-61
2023/08/25 08:41:11;;;;;;;4.57;2.33;;;;;;;;;;5056645;28;20045;-61
2023/08/25 08:43:41;;;;;;;3.13;2.05;;;;;;;;;;5057116;28;20017;-60
2023/08/25 08:46:07;;;;;;;3.47;2.38;;;;;;;;;;5056992;28;20166;-61
2023/08/25 08:48:34;;;;;;;4.05;2.60;;;;;;;;;;5056237;28;20063;-60
2023/08/25 08:51:01;;;;;;;2.85;2.08;;;;;;;;;;5056160;28;20462;-60
2023/08/25 08:53:27;;;;;;;4.00;2.90;;;;;;;;;;5056654;28;20033;-60
2023/08/25 08:55:53;;;;;;;3.50;2.22;;;;;;;;;;5056091;28;20025;-60
2023/08/25 08:58:21;;;;;;;2.95;2.25;;;;;;;;;;5056723;28;20029;-60
2023/08/25 09:00:47;;;;;;;5.38;2.25;;;;;;;;;;5056341;28;20422;-60
2023/08/25 09:03:17;;;;;;;4.25;2.78;;;;;;;;;;5056677;28;20079;-60
2023/08/25 09:05:43;;;;;;;3.72;2.58;;;;;;;;;;5056601;28;20075;-61
2023/08/25 09:08:10;;;;;;;3.28;2.28;;;;;;;;;;5055865;28;20029;-60
2023/08/25 09:10:36;;;;;;;4.20;2.58;;;;;;;;;;5056611;28;20064;-60
2023/08/25 09:13:02;;;;;;;3.55;2.83;;;;;;;;;;5056282;28;20431;-60
2023/08/25 09:15:29;;;;;;;3.03;2.38;;;;;;;;;;5055743;28;20024;-61
2023/08/25 09:18:01;;;;;;;3.10;2.42;;;;;;;;;;5056226;28;20414;-60
2023/08/25 09:20:28;;;;;;;3.72;2.65;;;;;;;;;;5056073;28;20064;-61
2023/08/25 09:22:58;;;;;;;3.42;2.75;;;;;;;;;;5055535;28;20071;-60
2023/08/25 09:25:26;;;;;;;3.10;2.43;;;;;;;;;;5055538;28;20112;-61
2023/08/25 09:27:57;;;;;;;3.88;2.75;;;;;;;;;;5055751;28;20017;-58
2023/08/25 09:30:32;;;;;;;3.10;2.15;;;;;;;;;;5055351;28;20025;-59
2023/08/25 09:33:02;;;;;;;2.97;2.30;;;;;;;;;;5054462;28;20025;-59
2023/08/25 09:35:28;;;;;;;3.30;2.40;;;;;;;;;;5055289;28;20048;-59
2023/08/25 09:37:54;;;;;;;3.58;2.40;;;;;;;;;;5055559;28;20291;-59
2023/08/25 09:40:20;;;;;;;4.88;2.03;;;;;;;;;;5055926;28;20472;-59
2023/08/25 09:42:46;;;;;;;5.10;2.67;;;;;;;;;;5055233;28;20021;-59
2023/08/25 09:45:13;;;;;;;2.88;2.47;;;;;;;;;;5055888;28;20024;-59
2023/08/25 09:47:41;;;;;;;3.53;2.45;;;;;;;;;;5055569;28;20021;-60
2023/08/25 09:50:07;;;;;;;4.30;2.90;;;;;;;;;;5055605;28;20021;-60
2023/08/25 09:52:36;;;;;;;3.88;2.95;;;;;;;;;;5055788;28;20033;-59
2023/08/25 09:55:02;;;;;;;3.33;2.95;;;;;;;;;;5054862;28;20035;-59
2023/08/25 09:57:28;;;;;;;4.22;2.45;;;;;;;;;;5054947;28;20025;-59
2023/08/25 09:59:54;;;;;;;5.53;3.13;;;;;;;;;;5055119;28;20083;-59
2023/08/25 10:02:20;;;;;;;6.40;2.80;;;;;;;;;;5054449;28;20067;-60
2023/08/25 10:04:47;;;;;;;5.35;2.55;;;;;;;;;;5055012;28;20359;-60
2023/08/25 10:07:13;;;;;;;3.72;3.05;;;;;;;;;;5054677;28;20367;-60
2023/08/25 10:09:39;;;;;;;3.40;2.50;;;;;;;;;;5054912;28;20112;-60
2023/08/25 10:12:07;;;;;;;2.72;2.20;;;;;;;;;;5054688;28;20104;-60
2023/08/25 10:14:34;;;;;;;3.15;2.70;;;;;;;;;;5054764;28;20052;-60
2023/08/25 10:17:04;;;;;;;5.15;2.60;;;;;;;;;;5055037;28;20020;-60
2023/08/25 10:19:32;;;;;;;3.25;2.22;;;;;;;;;;5054508;28;20033;-60
2023/08/25 10:22:01;;;;;;;3.88;2.35;;;;;;;;;;5054737;28;20036;-60
2023/08/25 10:24:28;;;;;;;5.60;2.53;;;;;;;;;;5054382;28;20029;-60
2023/08/25 10:26:54;;;;;;;2.42;2.08;;;;;;;;;;5054303;28;20025;-60
2023/08/25 10:29:21;;;;;;;2.88;2.00;;;;;;;;;;5054831;28;20029;-60
2023/08/25 10:31:48;;;;;;;2.78;2.17;;;;;;;;;;5054149;28;20036;-60
2023/08/25 10:34:31;;;;;;;2.85;2.15;;;;;;;;;;5054168;28;20021;-60
2023/08/25 10:37:10;;;;;;;2.90;2.20;;;;;;;;;;5053790;28;20049;-60
2023/08/25 10:39:55;;;;;;;4.68;2.22;;;;;;;;;;5054184;28;20097;-60
2023/08/25 10:42:23;;;;;;;6.72;1.80;;;;;;;;;;5053991;28;20352;-60
2023/08/25 10:44:54;;;;;;;4.15;2.72;;;;;;;;;;5053807;28;20497;-60
2023/08/25 10:47:21;;;;;;;3.22;2.40;;;;;;;;;;5054437;28;20036;-60
2023/08/25 10:49:46;;;;;;;4.78;2.30;;;;;;;;;;5054523;28;20028;-60
2023/08/25 10:52:14;;;;;;;2.88;1.80;;;;;;;;;;5054487;28;20455;-60
2023/08/25 10:54:41;;;;;;;3.10;2.33;;;;;;;;;;5053452;28;20478;-60
2023/08/25 10:57:39;;;;;;;2.88;1.90;;;;;;;;;;5053756;28;20052;-60
2023/08/25 11:00:25;;;;;;;2.80;2.25;;;;;;;;;;5054292;28;20375;-60
2023/08/25 11:02:51;;;;;;;2.55;1.85;;;;;;;;;;5054171;28;20025;-60
2023/08/25 11:05:31;;;;;;;2.70;1.90;;;;;;;;;;5054427;28;20341;-60
2023/08/25 11:07:58;;;;;;;5.57;2.50;;;;;;;;;;5053635;28;20021;-60
2023/08/25 11:10:24;;;;;;;2.47;1.80;;;;;;;;;;5053926;28;20459;-60
2023/08/25 11:12:54;;;;;;;3.40;2.20;;;;;;;;;;5053584;28;20029;-60
2023/08/25 11:15:23;;;;;;;2.55;2.08;;;;;;;;;;5053811;28;20024;-60
2023/08/25 11:17:50;;;;;;;3.05;2.08;;;;;;;;;;5053578;28;20033;-60
2023/08/25 11:20:16;;;;;;;3.28;2.10;;;;;;;;;;5053945;28;20028;-60
2023/08/25 11:22:56;;;;;;;3.60;2.22;;;;;;;;;;5054053;28;20028;-60
2023/08/25 11:25:22;;;;;;;2.30;1.83;;;;;;;;;;5053284;28;20028;-60
2023/08/25 11:27:49;;;;;;;2.80;2.13;;;;;;;;;;5053634;28;20481;-60
2023/08/25 11:30:15;;;;;;;3.70;2.25;;;;;;;;;;5053828;28;20029;-60
2023/08/25 11:32:51;;;;;;;2.78;1.60;;;;;;;;;;5053399;28;20032;-60
2023/08/25 11:35:17;;;;;;;5.78;2.13;;;;;;;;;;5053275;28;20028;-60
2023/08/25 11:37:47;;;;;;;2.78;2.33;;;;;;;;;;5053937;28;20053;-60
2023/08/25 11:40:18;;;;;;;3.03;2.33;;;;;;;;;;5053538;28;20029;-60
2023/08/25 11:42:44;;;;;;;3.40;2.75;;;;;;;;;;5053885;28;20029;-60
2023/08/25 11:45:11;;;;;;;3.40;2.42;;;;;;;;;;5053588;28;20121;-60
2023/08/25 11:47:40;;;;;;;3.53;2.78;;;;;;;;;;5053842;28;20025;-60
2023/08/25 11:50:06;;;;;;;3.40;2.35;;;;;;;;;;5053640;28;20037;-60
2023/08/25 11:52:33;;;;;;;4.93;2.83;;;;;;;;;;5053266;28;20036;-60
2023/08/25 11:54:59;;;;;;;3.75;1.90;;;;;;;;;;5053263;28;20475;-60
2023/08/25 11:57:34;;;;;;;3.40;2.45;;;;;;;;;;5056863;28;20066;-60
2023/08/25 12:00:02;;;;;;;3.25;2.38;;;;;;;;;;5057557;28;20040;-60
2023/08/25 12:02:28;;;;;;;3.63;2.67;;;;;;;;;;5057073;28;20032;-60
2023/08/25 12:04:55;;;;;;;3.58;2.53;;;;;;;;;;5057322;28;20017;-60
2023/08/25 12:07:24;;;;;;;4.47;2.40;;;;;;;;;;5057024;28;20029;-60
2023/08/25 12:09:56;;;;;;;3.55;2.80;;;;;;;;;;5057242;28;20021;-60
2023/08/25 12:12:22;;;;;;;2.95;2.33;;;;;;;;;;5056939;28;20021;-60
2023/08/25 12:14:52;;;;;;;3.20;2.88;;;;;;;;;;5056867;28;20020;-60
2023/08/25 12:17:22;;;;;;;3.50;2.53;;;;;;;;;;5056735;28;20459;-60
2023/08/25 12:19:48;;;;;;;4.03;3.10;;;;;;;;;;5056718;28;20079;-60
2023/08/25 12:22:15;;;;;;;3.03;2.40;;;;;;;;;;5056691;28;20063;-60
2023/08/25 12:24:41;;;;;;;3.78;2.55;;;;;;;;;;5057129;28;20035;-60
2023/08/25 12:27:07;;;;;;;3.83;2.72;;;;;;;;;;5056301;28;20052;-60
2023/08/25 12:29:34;;;;;;;4.00;2.75;;;;;;;;;;5056571;28;20036;-60
2023/08/25 12:32:00;;;;;;;5.25;3.08;;;;;;;;;;5056228;28;20100;-60
2023/08/25 12:34:26;;;;;;;2.92;2.55;;;;;;;;;;5056457;28;20028;-60
2023/08/25 12:36:52;;;;;;;4.40;2.83;;;;;;;;;;5056726;28;20049;-60
2023/08/25 12:39:20;;;;;;;4.68;2.55;;;;;;;;;;5056617;28;20021;-60
2023/08/25 12:41:46;;;;;;;4.45;2.70;;;;;;;;;;5056359;28;20125;-60
2023/08/25 12:44:13;;;;;;;5.45;2.67;;;;;;;;;;5056764;28;20111;-60
2023/08/25 12:46:39;;;;;;;3.20;2.58;;;;;;;;;;5056194;28;20455;-60
2023/08/25 12:49:05;;;;;;;4.68;2.50;;;;;;;;;;5056503;28;20100;-60
2023/08/25 12:51:31;;;;;;;6.85;2.65;;;;;;;;;;5056112;28;20151;-60
2023/08/25 12:53:57;;;;;;;7.38;2.85;;;;;;;;;;5056157;28;20056;-60
2023/08/25 12:56:26;;;;;;;3.05;2.20;;;;;;;;;;5056587;28;20504;-60
2023/08/25 12:58:53;;;;;;;3.13;2.50;;;;;;;;;;5056087;28;20028;-60
2023/08/25 13:01:19;;;;;;;6.47;2.78;;;;;;;;;;5056350;28;20033;-60
2023/08/25 13:03:45;;;;;;;4.22;3.10;;;;;;;;;;5056160;28;20032;-60
2023/08/25 13:06:11;;;;;;;4.40;2.42;;;;;;;;;;5055615;28;20021;-60
2023/08/25 13:08:37;;;;;;;3.92;2.60;;;;;;;;;;5055823;28;20082;-60
2023/08/25 13:11:04;;;;;;;4.45;3.10;;;;;;;;;;5056084;28;20028;-60
2023/08/25 13:13:29;;;;;;;3.80;2.78;;;;;;;;;;5055779;28;20044;-60
2023/08/25 13:15:59;;;;;;;3.42;2.80;;;;;;;;;;5055386;28;20021;-60
2023/08/25 13:18:25;;;;;;;2.85;2.08;;;;;;;;;;5055627;28;20025;-60
2023/08/25 13:20:51;;;;;;;4.85;2.95;;;;;;;;;;5056145;28;20025;-60
2023/08/25 13:23:17;;;;;;;3.33;2.42;;;;;;;;;;5056047;28;20032;-60
2023/08/25 13:25:43;;;;;;;4.57;2.63;;;;;;;;;;5056054;28;20029;-60
2023/08/25 13:28:09;;;;;;;3.53;2.85;;;;;;;;;;5055360;28;20479;-60
2023/08/25 13:30:35;;;;;;;4.78;3.28;;;;;;;;;;5056043;28;20056;-60
2023/08/25 13:33:01;;;;;;;3.00;2.35;;;;;;;;;;5055651;28;20515;-60
2023/08/25 13:35:27;;;;;;;3.25;2.60;;;;;;;;;;5055154;28;20361;-60
2023/08/25 13:37:55;;;;;;;8.40;2.60;;;;;;;;;;5054458;28;20021;-60
2023/08/25 13:40:21;;;;;;;4.28;2.45;;;;;;;;;;5055342;28;20040;-60
2023/08/25 13:42:47;;;;;;;3.00;2.05;;;;;;;;;;5055911;28;20021;-60
2023/08/25 13:45:14;;;;;;;3.53;2.60;;;;;;;;;;5055174;28;20027;-60
2023/08/25 13:47:40;;;;;;;2.72;2.30;;;;;;;;;;5055140;28;20031;-60
2023/08/25 13:50:06;;;;;;;3.65;2.45;;;;;;;;;;5055322;28;20429;-60
2023/08/25 13:52:32;;;;;;;4.07;2.25;;;;;;;;;;5054978;28;20025;-60
2023/08/25 13:54:58;;;;;;;2.65;2.22;;;;;;;;;;5055273;28;20079;-60
2023/08/25 13:57:24;;;;;;;5.32;2.70;;;;;;;;;;5055020;28;20418;-60
2023/08/25 13:59:50;;;;;;;2.97;2.35;;;;;;;;;;5055452;28;20359;-60
2023/08/25 14:02:16;;;;;;;5.05;2.97;;;;;;;;;;5055610;28;20382;-60
2023/08/25 14:04:42;;;;;;;6.20;3.10;;;;;;;;;;5054492;28;20538;-60
2023/08/25 14:07:08;;;;;;;3.75;2.72;;;;;;;;;;5053574;28;20108;-60
2023/08/25 14:09:34;;;;;;;2.90;2.30;;;;;;;;;;5055062;28;20036;-60
2023/08/25 14:12:00;;;;;;;3.47;2.90;;;;;;;;;;5054811;28;20028;-60
2023/08/25 14:14:27;;;;;;;4.25;2.63;;;;;;;;;;5055082;28;20021;-60
2023/08/25 14:16:53;;;;;;;4.88;2.88;;;;;;;;;;5054460;28;20024;-60
2023/08/25 14:19:19;;;;;;;4.15;2.42;;;;;;;;;;5054282;28;20024;-60
2023/08/25 14:21:45;;;;;;;3.38;2.65;;;;;;;;;;5054527;28;20139;-60
2023/08/25 14:24:10;;;;;;;4.03;3.00;;;;;;;;;;5054423;28;20092;-61
2023/08/25 14:26:36;;;;;;;4.07;2.72;;;;;;;;;;5054388;28;20074;-60
2023/08/25 14:29:03;;;;;;;3.78;2.92;;;;;;;;;;5054546;28;20414;-61
2023/08/25 14:31:29;;;;;;;4.35;2.60;;;;;;;;;;5054209;28;20032;-60
2023/08/25 14:33:55;;;;;;;5.70;2.42;;;;;;;;;;5054239;28;20021;-60
2023/08/25 14:36:21;;;;;;;3.53;2.58;;;;;;;;;;5054446;28;20550;-60
2023/08/25 14:38:47;;;;;;;4.45;3.30;;;;;;;;;;5054384;28;20018;-60
2023/08/25 14:41:13;;;;;;;4.32;2.60;;;;;;;;;;5053965;28;20044;-60